This is the latest recevied weather packets stored in our database for station/object W7JFO-3. If no packets are shown the sender has not sent any weather packets the latest 1 day(s).
| Time | Temp. | Humidity | Pressure | Rain* | Wind** | Luminosity | Snow |
|---|---|---|---|---|---|---|---|
| 1777993304 | 9.44° C | 42% | 1014.3 hPa | 0 mm | 0.45 m/s, 0° | 357 W/m² | - |
| 1777992404 | 8.33° C | 42% | 1014.4 hPa | 0 mm | 0.89 m/s, 11° | 355 W/m² | - |
| 1777991504 | 8.33° C | 40% | 1014.3 hPa | 0 mm | 0.89 m/s, 13° | 359 W/m² | - |
| 1777990604 | 7.78° C | 39% | 1014.2 hPa | 0 mm | 0.89 m/s, 301° | 329 W/m² | - |
| 1777989704 | 6.67° C | 44% | 1014.2 hPa | 0 mm | 0.45 m/s, 298° | 336 W/m² | - |
| 1777988804 | 6.11° C | 46% | 1014.1 hPa | 0 mm | 0.45 m/s, 316° | 125 W/m² | - |
| 1777987904 | 6.67° C | 43% | 1013.8 hPa | 0 mm | 0.89 m/s, 316° | 65 W/m² | - |
| 1777987004 | 7.22° C | 39% | 1013.5 hPa | 0 mm | 0.45 m/s, 70° | 47 W/m² | - |
| 1777986104 | 7.22° C | 38% | 1013.2 hPa | 0 mm | 0.45 m/s, 70° | 91 W/m² | - |
| 1777985204 | 6.67° C | 39% | 1013.1 hPa | 0 mm | 0.89 m/s, 70° | 39 W/m² | - |
| 1777984304 | 6.11° C | 39% | 1013 hPa | 0 mm | 0.89 m/s, 61° | 12 W/m² | - |
| 1777983404 | 6.11° C | 40% | 1012.8 hPa | 0 mm | 0.89 m/s, 57° | 5 W/m² | - |
| 1777982504 | 6.11° C | 40% | 1012.8 hPa | 0 mm | 0.89 m/s, 65° | 0 W/m² | - |
| 1777981604 | 6.11° C | 40% | 1012.6 hPa | 0 mm | 1.79 m/s, 111° | 0 W/m² | - |
| 1777980704 | 6.67° C | 41% | 1012.5 hPa | 0 mm | 1.79 m/s, 61° | 0 W/m² | - |
| 1777979804 | 6.67° C | 43% | 1012.7 hPa | 0 mm | 1.79 m/s, 71° | 0 W/m² | - |
| 1777978904 | 6.67° C | 40% | 1013 hPa | 0 mm | 1.79 m/s, 79° | 0 W/m² | - |
| 1777978004 | 6.67° C | 40% | 1012.9 hPa | 0 mm | 2.68 m/s, 88° | 0 W/m² | - |
| 1777977104 | 6.67° C | 42% | 1012.8 hPa | 0 mm | 2.68 m/s, 88° | 0 W/m² | - |
| 1777976204 | 7.22° C | 40% | 1012.7 hPa | 0 mm | 3.13 m/s, 94° | 0 W/m² | - |
| 1777975304 | 7.22° C | 40% | 1012.7 hPa | 0 mm | 3.13 m/s, 86° | 0 W/m² | - |
| 1777974404 | 7.22° C | 41% | 1012.6 hPa | 0 mm | 3.13 m/s, 94° | 0 W/m² | - |
* Rain latest hour (hover to see other rain measurements)
** Current wind speed in m/s (hover to see current wind gust speed)